Main page
METAR-TAF:

METAR-TAF

Airports :

Birmingham, England

Birmingham Airport

latitude: 52-27N, longitude: 001-44W, elevation: 99 m

Current weather observation

The report was made 27 minutes ago, at 22:50 UTC
Wind 5 kt from the West/Southwest
Temperature 15°C
Humidity 82%
Pressure 1014 hPa
Visibility 10 km or more
no clouds below 1500 m and no cumulonimbus

METAR: EGBB 232250Z 24005KT CAVOK 15/12 Q1014

Time: 00:17 (23:17 UTC)

Forecast

The report was made 6 hours and 22 minutes ago, at 16:55 UTC
Forecast valid from 23 at 18 UTC to 24 at 18 UTC
Wind 10 kt from the West
Visibility 10 km or more
Few clouds at a height of 4000 ft
Becoming
from 24 at 03 UTC to 24 at 06 UTC
Wind 7 kt from the Southwest
Becoming
from 24 at 07 UTC to 24 at 10 UTC
Wind 10 kt from the West

TAF: EGBB 231655Z 2318/2418 28010KT 9999 FEW040 BECMG 2403/2406 22007KT BECMG 2407/2410 28010KT

Weather observations and forecasts of more than 4000 airports (METAR and TAF reports).

The available stations are represented by yellow and red dots on the map.

Hover mouse over dot to see the name of the station.

Then click to see weather observations and forecasts.

To change the map : click on the green buttons with a black cross to zoom in, on the green button with a dash to zoom out, or on the green arrows for adjacent maps.


METAR-TAF: